createdAt,value
2018-06-12T00:00:01.392Z,5.20
2018-06-12T00:00:32.594Z,6.60
2018-06-12T00:01:03.817Z,5.53
2018-06-12T00:01:34.999Z,5.77
2018-06-12T00:02:06.172Z,5.57
2018-06-12T00:02:37.345Z,6.93
2018-06-12T00:03:08.513Z,5.70
2018-06-12T00:03:39.696Z,6.10
2018-06-12T00:04:10.870Z,10.37
2018-06-12T00:04:42.141Z,8.17
2018-06-12T00:05:13.339Z,6.03
2018-06-12T00:05:44.511Z,6.37
2018-06-12T00:06:15.685Z,8.50
2018-06-12T00:06:46.867Z,6.73
2018-06-12T00:07:18.040Z,5.40
2018-06-12T00:07:49.246Z,8.03
2018-06-12T00:08:20.421Z,5.83
2018-06-12T00:08:51.660Z,5.97
2018-06-12T00:09:22.909Z,7.13
2018-06-12T00:09:54.189Z,8.07
2018-06-12T00:10:25.399Z,7.07
2018-06-12T00:10:56.575Z,8.63
2018-06-12T00:11:27.741Z,8.33
2018-06-12T00:11:58.904Z,7.13
2018-06-12T00:12:30.141Z,7.63
2018-06-12T00:13:01.409Z,6.57
2018-06-12T00:13:32.576Z,7.10
2018-06-12T00:14:03.754Z,6.57
2018-06-12T00:14:35.261Z,8.57
2018-06-12T00:15:06.545Z,8.07
2018-06-12T00:15:37.744Z,7.37
2018-06-12T00:16:08.924Z,6.97
2018-06-12T00:16:40.100Z,9.20
2018-06-12T00:17:11.275Z,5.83
2018-06-12T00:17:42.501Z,5.93
2018-06-12T00:18:13.745Z,6.20
2018-06-12T00:18:44.912Z,7.47
2018-06-12T00:19:16.085Z,6.77
2018-06-12T00:19:47.267Z,6.20
2018-06-12T00:20:18.535Z,7.10
2018-06-12T00:20:49.796Z,7.13
2018-06-12T00:21:20.984Z,8.47
2018-06-12T00:21:52.157Z,6.08
2018-06-12T00:22:23.387Z,9.37
2018-06-12T00:22:54.567Z,6.57
2018-06-12T00:23:25.799Z,6.23
2018-06-12T00:23:57.023Z,6.57
2018-06-12T00:24:28.200Z,7.00
2018-06-12T00:24:59.424Z,6.97
2018-06-12T00:25:30.657Z,7.70
2018-06-12T00:26:01.846Z,7.20
2018-06-12T00:26:33.027Z,7.90
2018-06-12T00:27:04.298Z,7.97
2018-06-12T00:27:35.472Z,9.50
2018-06-12T00:28:06.701Z,11.77
2018-06-12T00:28:37.897Z,10.35
2018-06-12T00:29:09.076Z,8.53
2018-06-12T00:29:40.297Z,7.65
2018-06-12T00:30:11.515Z,9.33
2018-06-12T00:30:42.765Z,10.82
2018-06-12T00:31:13.945Z,9.73
2018-06-12T00:31:45.140Z,9.80
2018-06-12T00:32:16.308Z,9.28
2018-06-12T00:32:47.543Z,9.70
2018-06-12T00:33:18.729Z,13.27
2018-06-12T00:33:49.947Z,12.83
2018-06-12T00:34:21.185Z,10.70
2018-06-12T00:34:52.413Z,10.83
2018-06-12T00:35:23.613Z,11.87
2018-06-12T00:35:54.821Z,10.82
2018-06-12T00:36:25.988Z,11.20
2018-06-12T00:36:57.161Z,10.33
2018-06-12T00:37:28.347Z,12.30
2018-06-12T00:37:59.516Z,11.33
2018-06-12T00:38:30.769Z,10.85
2018-06-12T00:39:02.002Z,13.30
2018-06-12T00:39:33.200Z,10.60
2018-06-12T00:40:04.461Z,12.47
2018-06-12T00:40:35.639Z,17.00
2018-06-12T00:41:06.896Z,10.90
2018-06-12T00:41:38.129Z,11.12
2018-06-12T00:42:09.362Z,11.20
2018-06-12T00:42:40.577Z,14.30
2018-06-12T00:43:11.756Z,11.40
2018-06-12T00:43:42.999Z,13.25
2018-06-12T00:44:14.184Z,13.93
2018-06-12T00:44:45.412Z,12.15
2018-06-12T00:45:16.653Z,12.58
2018-06-12T00:45:47.868Z,12.18
2018-06-12T00:46:19.088Z,12.15
2018-06-12T00:46:50.285Z,11.48
2018-06-12T00:47:21.460Z,11.75
2018-06-12T00:47:52.634Z,11.45
2018-06-12T00:48:23.881Z,10.72
2018-06-12T00:48:55.132Z,11.55
2018-06-12T00:49:26.390Z,12.98
2018-06-12T00:49:57.628Z,9.68
2018-06-12T00:50:28.800Z,10.82
2018-06-12T00:51:00.002Z,16.25
2018-06-12T00:51:31.270Z,10.53
2018-06-12T00:52:02.543Z,10.23
2018-06-12T00:52:33.786Z,10.78
2018-06-12T00:53:04.965Z,10.45
2018-06-12T00:53:36.148Z,10.03
2018-06-12T00:54:07.330Z,12.23
2018-06-12T00:54:38.509Z,10.08
2018-06-12T00:55:13.319Z,11.10
2018-06-12T00:55:44.503Z,12.55
2018-06-12T00:56:15.708Z,13.18
2018-06-12T00:56:49.283Z,13.32
2018-06-12T00:57:20.580Z,12.90
2018-06-12T00:58:01.061Z,12.00
2018-06-12T00:58:32.968Z,15.05
2018-06-12T00:59:04.716Z,12.82
2018-06-12T00:59:35.987Z,12.00
2018-06-12T01:00:07.236Z,15.20
2018-06-12T01:00:38.428Z,12.07
2018-06-12T01:01:09.731Z,11.85
2018-06-12T01:01:40.917Z,12.07
2018-06-12T01:02:12.096Z,14.55
2018-06-12T01:02:43.266Z,11.73
2018-06-12T01:03:14.501Z,12.68
2018-06-12T01:03:45.687Z,12.03
2018-06-12T01:04:16.861Z,12.90
2018-06-12T01:04:48.043Z,11.83
2018-06-12T01:05:19.250Z,14.35
2018-06-12T01:05:51.264Z,12.43
2018-06-12T01:06:22.493Z,13.20
2018-06-12T01:06:53.700Z,15.50
2018-06-12T01:07:24.912Z,11.45
2018-06-12T01:07:56.150Z,10.53
2018-06-12T01:08:27.400Z,11.30
2018-06-12T01:08:58.569Z,10.75
2018-06-12T01:09:29.880Z,11.33
2018-06-12T01:10:01.115Z,11.57
2018-06-12T01:10:32.301Z,10.90
2018-06-12T01:11:03.476Z,11.43
2018-06-12T01:11:34.661Z,12.15
2018-06-12T01:12:05.862Z,11.35
2018-06-12T01:12:37.069Z,11.12
2018-06-12T01:13:08.250Z,11.75
2018-06-12T01:13:39.482Z,11.22
2018-06-12T01:14:10.720Z,12.50
2018-06-12T01:14:41.945Z,12.00
2018-06-12T01:15:13.131Z,14.60
2018-06-12T01:15:44.406Z,13.38
2018-06-12T01:16:15.588Z,13.00
2018-06-12T01:16:46.774Z,11.57
2018-06-12T01:17:17.986Z,12.55
2018-06-12T01:17:49.169Z,10.70
2018-06-12T01:18:20.450Z,10.82
2018-06-12T01:18:51.638Z,11.50
2018-06-12T01:19:22.844Z,14.15
2018-06-12T01:19:54.029Z,13.75
2018-06-12T01:20:25.279Z,13.20
2018-06-12T01:20:56.466Z,11.88
2018-06-12T01:21:27.650Z,12.85
2018-06-12T01:21:58.824Z,11.68
2018-06-12T01:22:29.996Z,10.95
2018-06-12T01:23:01.233Z,11.40
2018-06-12T01:23:32.465Z,11.95
2018-06-12T01:24:03.690Z,12.47
2018-06-12T01:24:34.879Z,11.33
2018-06-12T01:25:06.107Z,12.95
2018-06-12T01:25:37.338Z,11.48
2018-06-12T01:26:08.577Z,12.15
2018-06-12T01:26:39.761Z,13.75
2018-06-12T01:27:10.984Z,11.05
2018-06-12T01:27:42.168Z,11.45
2018-06-12T01:28:13.397Z,12.20
2018-06-12T01:28:44.710Z,13.20
2018-06-12T01:29:15.947Z,13.43
2018-06-12T01:29:47.191Z,12.23
2018-06-12T01:30:18.449Z,13.38
2018-06-12T01:30:49.633Z,11.20
2018-06-12T01:31:20.823Z,13.43
2018-06-12T01:31:52.053Z,12.30
2018-06-12T01:32:23.250Z,14.35
2018-06-12T01:32:54.430Z,14.13
2018-06-12T01:33:25.624Z,14.63
2018-06-12T01:33:56.848Z,12.78
2018-06-12T01:34:28.021Z,13.25
2018-06-12T01:34:59.269Z,12.00
2018-06-12T01:35:30.467Z,13.30
2018-06-12T01:36:01.717Z,11.05
2018-06-12T01:36:32.905Z,12.90
2018-06-12T01:37:04.089Z,12.00
2018-06-12T01:37:35.264Z,13.38
2018-06-12T01:38:06.442Z,11.48
2018-06-12T01:38:37.685Z,14.58
2018-06-12T01:39:08.858Z,14.90
2018-06-12T01:39:40.033Z,11.45
2018-06-12T01:40:11.285Z,12.88
2018-06-12T01:40:42.472Z,13.45
2018-06-12T01:41:13.685Z,14.98
2018-06-12T01:41:44.856Z,16.35
2018-06-12T01:42:16.033Z,12.50
2018-06-12T01:42:47.273Z,12.68
2018-06-12T01:43:18.519Z,12.85
2018-06-12T01:43:49.705Z,14.00
2018-06-12T01:44:20.872Z,12.58
2018-06-12T01:44:52.101Z,13.22
2018-06-12T01:45:23.285Z,12.85
2018-06-12T01:45:54.476Z,13.83
2018-06-12T01:46:25.743Z,13.98
2018-06-12T01:46:56.986Z,11.68
2018-06-12T01:47:28.177Z,14.25
2018-06-12T01:47:59.461Z,13.78
2018-06-12T01:48:30.691Z,13.30
2018-06-12T01:49:01.870Z,11.18
2018-06-12T01:49:33.098Z,13.70
2018-06-12T01:50:04.308Z,11.50
2018-06-12T01:50:35.481Z,12.30
2018-06-12T01:51:06.659Z,14.75
2018-06-12T01:51:37.881Z,12.13
2018-06-12T01:52:09.072Z,13.62
2018-06-12T01:52:40.276Z,12.47
2018-06-12T01:53:11.537Z,12.20
2018-06-12T01:53:42.738Z,13.13
2018-06-12T01:54:13.972Z,13.80
2018-06-12T01:54:45.156Z,14.30
2018-06-12T01:55:16.441Z,11.43
2018-06-12T01:55:47.673Z,12.15
2018-06-12T01:56:18.870Z,15.60
2018-06-12T01:56:50.044Z,14.35
2018-06-12T01:57:21.214Z,13.78
2018-06-12T01:57:52.444Z,13.70
2018-06-12T01:58:23.671Z,14.23
2018-06-12T01:58:54.913Z,13.85
2018-06-12T01:59:26.144Z,12.45
2018-06-12T01:59:57.312Z,13.28
2018-06-12T02:00:28.532Z,13.00
2018-06-12T02:00:59.704Z,12.50
2018-06-12T02:01:30.880Z,13.28
2018-06-12T02:02:02.108Z,12.25
2018-06-12T02:02:33.295Z,14.90
2018-06-12T02:03:04.484Z,11.78
2018-06-12T02:03:35.716Z,14.23
2018-06-12T02:04:06.953Z,11.95
2018-06-12T02:04:38.136Z,15.53
2018-06-12T02:05:09.373Z,14.70
2018-06-12T02:05:40.600Z,10.88
2018-06-12T02:06:11.877Z,12.23
2018-06-12T02:06:43.118Z,12.63
2018-06-12T02:07:14.293Z,12.70
2018-06-12T02:07:45.563Z,12.75
2018-06-12T02:08:16.763Z,12.53
2018-06-12T02:08:47.980Z,11.10
2018-06-12T02:09:19.229Z,15.03
2018-06-12T02:09:50.415Z,12.35
2018-06-12T02:10:21.668Z,11.10
2018-06-12T02:10:52.919Z,10.93
2018-06-12T02:11:24.095Z,13.05
2018-06-12T02:11:55.284Z,15.88
2018-06-12T02:12:26.465Z,12.13
2018-06-12T02:12:57.654Z,14.30
2018-06-12T02:13:29.645Z,11.85
2018-06-12T02:14:00.860Z,11.45
2018-06-12T02:14:32.037Z,12.43
2018-06-12T02:15:03.269Z,11.10
2018-06-12T02:15:34.534Z,14.75
2018-06-12T02:16:06.934Z,14.20
2018-06-12T02:16:38.156Z,10.15
2018-06-12T02:17:09.349Z,11.20
2018-06-12T02:17:40.590Z,11.35
2018-06-12T02:18:11.775Z,10.78
2018-06-12T02:18:42.948Z,14.35
2018-06-12T02:19:14.172Z,11.30
2018-06-12T02:19:46.008Z,13.15
2018-06-12T02:20:17.244Z,11.63
2018-06-12T02:20:48.419Z,11.43
2018-06-12T02:21:20.216Z,11.48
2018-06-12T02:21:51.447Z,11.73
2018-06-12T02:22:22.681Z,12.45
2018-06-12T02:22:53.867Z,11.63
2018-06-12T02:23:25.110Z,13.95
2018-06-12T02:23:56.342Z,12.75
2018-06-12T02:24:27.564Z,13.95
2018-06-12T02:24:58.748Z,15.25
2018-06-12T02:25:29.932Z,11.75
2018-06-12T02:26:01.216Z,11.25
2018-06-12T02:26:32.405Z,12.28
2018-06-12T02:27:03.592Z,12.10
2018-06-12T02:27:34.760Z,11.03
2018-06-12T02:28:05.942Z,13.08
2018-06-12T02:28:37.143Z,11.90
2018-06-12T02:29:08.366Z,11.43
2018-06-12T02:29:39.543Z,12.13
2018-06-12T02:30:10.780Z,12.07
2018-06-12T02:30:41.985Z,15.55
2018-06-12T02:31:13.212Z,10.65
2018-06-12T02:31:44.504Z,11.97
2018-06-12T02:32:15.734Z,14.07
2018-06-12T02:32:46.953Z,13.70
2018-06-12T02:33:18.133Z,12.50
2018-06-12T02:33:49.317Z,12.47
2018-06-12T02:34:20.590Z,13.25
2018-06-12T02:34:51.826Z,13.35
2018-06-12T02:35:23.024Z,12.65
2018-06-12T02:35:54.265Z,12.43
2018-06-12T02:36:25.470Z,12.23
2018-06-12T02:36:56.733Z,12.35
2018-06-12T02:37:27.960Z,16.27
2018-06-12T02:37:59.214Z,12.30
2018-06-12T02:38:30.400Z,13.48
2018-06-12T02:39:02.529Z,15.05
2018-06-12T02:39:34.382Z,13.68
2018-06-12T02:40:05.625Z,13.70
2018-06-12T02:40:36.846Z,14.23
2018-06-12T02:41:08.038Z,12.37
2018-06-12T02:41:39.256Z,12.47
2018-06-12T02:42:10.460Z,15.60
2018-06-12T02:42:41.706Z,13.50
2018-06-12T02:43:12.900Z,13.08
2018-06-12T02:43:44.085Z,14.47
2018-06-12T02:44:15.259Z,12.93
2018-06-12T02:44:46.441Z,12.68
2018-06-12T02:45:17.741Z,13.15
2018-06-12T02:45:49.016Z,14.07
2018-06-12T02:46:20.254Z,15.28
2018-06-12T02:46:51.554Z,13.08
2018-06-12T02:47:22.774Z,13.48
2018-06-12T02:47:53.992Z,14.60
2018-06-12T02:48:25.164Z,15.20
2018-06-12T02:48:56.379Z,13.10
2018-06-12T02:49:27.615Z,13.80
2018-06-12T02:49:58.876Z,14.15
2018-06-12T02:50:30.174Z,15.55
2018-06-12T02:51:01.354Z,12.88
2018-06-12T02:51:32.579Z,13.05
2018-06-12T02:52:03.807Z,13.20
2018-06-12T02:52:34.999Z,13.98
2018-06-12T02:53:06.240Z,12.53
2018-06-12T02:53:37.428Z,12.28
2018-06-12T02:54:09.663Z,14.40
2018-06-12T02:54:40.865Z,12.07
2018-06-12T02:55:12.597Z,15.15
2018-06-12T02:55:43.782Z,12.95
2018-06-12T02:56:15.007Z,13.10
2018-06-12T02:56:46.272Z,12.30
2018-06-12T02:57:17.445Z,12.90
2018-06-12T02:57:48.624Z,15.15
2018-06-12T02:58:20.748Z,12.68
2018-06-12T02:58:52.081Z,13.20
2018-06-12T02:59:23.265Z,13.98
2018-06-12T02:59:54.470Z,12.37
2018-06-12T03:00:25.644Z,14.95
2018-06-12T03:00:57.577Z,11.73
2018-06-12T03:01:28.761Z,13.28
2018-06-12T03:02:00.054Z,12.63
2018-06-12T03:02:32.040Z,14.93
2018-06-12T03:03:03.214Z,12.93
2018-06-12T03:03:34.430Z,13.60
2018-06-12T03:04:05.622Z,13.10
2018-06-12T03:04:36.807Z,12.07
2018-06-12T03:05:07.980Z,14.03
2018-06-12T03:05:39.187Z,12.95
2018-06-12T03:06:10.422Z,11.63
2018-06-12T03:06:41.641Z,11.70
2018-06-12T03:07:12.946Z,13.28
2018-06-12T03:07:44.154Z,11.80
2018-06-12T03:08:15.327Z,12.50
2018-06-12T03:08:46.505Z,12.07
2018-06-12T03:09:17.720Z,14.45
2018-06-12T03:09:48.897Z,12.95
2018-06-12T03:10:20.066Z,12.73
2018-06-12T03:10:51.253Z,12.90
2018-06-12T03:11:22.474Z,11.68
2018-06-12T03:11:53.677Z,11.80
2018-06-12T03:12:24.884Z,11.45
2018-06-12T03:12:56.060Z,10.68
2018-06-12T03:13:27.297Z,12.28
2018-06-12T03:13:58.500Z,12.13
2018-06-12T03:14:29.685Z,10.80
2018-06-12T03:15:01.441Z,14.93
2018-06-12T03:15:32.681Z,11.53
2018-06-12T03:16:03.862Z,11.78
2018-06-12T03:16:35.035Z,12.13
2018-06-12T03:17:06.222Z,12.45
2018-06-12T03:17:37.397Z,10.70
2018-06-12T03:18:08.596Z,12.00
2018-06-12T03:18:39.825Z,14.47
2018-06-12T03:19:11.017Z,12.50
2018-06-12T03:19:42.220Z,11.00
2018-06-12T03:20:13.457Z,12.45
2018-06-12T03:20:44.648Z,11.95
2018-06-12T03:21:15.824Z,11.22
2018-06-12T03:21:46.996Z,11.73
2018-06-12T03:22:18.224Z,12.05
2018-06-12T03:22:49.485Z,14.20
2018-06-12T03:23:20.711Z,12.88
2018-06-12T03:23:51.937Z,11.43
2018-06-12T03:24:23.243Z,11.57
2018-06-12T03:24:54.473Z,12.18
2018-06-12T03:25:25.729Z,11.43
2018-06-12T03:25:56.984Z,13.30
2018-06-12T03:26:28.170Z,12.30
2018-06-12T03:26:59.351Z,11.75
2018-06-12T03:27:30.547Z,13.53
2018-06-12T03:28:01.717Z,11.38
2018-06-12T03:28:32.908Z,11.30
2018-06-12T03:29:04.081Z,11.65
2018-06-12T03:29:35.301Z,10.95
2018-06-12T03:30:06.496Z,12.53
2018-06-12T03:30:37.698Z,11.80
2018-06-12T03:31:08.879Z,10.65
2018-06-12T03:31:40.117Z,11.73
2018-06-12T03:32:11.301Z,11.63
2018-06-12T03:32:42.504Z,11.55
2018-06-12T03:33:13.725Z,11.15
2018-06-12T03:33:44.957Z,12.18
2018-06-12T03:34:16.193Z,11.50
2018-06-12T03:34:47.408Z,13.32
2018-06-12T03:35:18.608Z,10.78
2018-06-12T03:35:49.845Z,11.15
2018-06-12T03:36:21.029Z,12.13
2018-06-12T03:36:52.208Z,13.25
2018-06-12T03:37:23.384Z,11.50
2018-06-12T03:37:54.604Z,11.67
2018-06-12T03:38:25.779Z,11.17
2018-06-12T03:38:56.945Z,11.47
2018-06-12T03:39:28.155Z,11.43
2018-06-12T03:39:59.381Z,13.27
2018-06-12T03:40:30.720Z,12.63
2018-06-12T03:41:01.900Z,11.87
2018-06-12T03:41:33.086Z,14.30
2018-06-12T03:42:04.260Z,11.00
2018-06-12T03:42:35.485Z,12.30
2018-06-12T03:43:06.740Z,10.77
2018-06-12T03:43:37.948Z,11.73
2018-06-12T03:44:09.118Z,13.10
2018-06-12T03:44:40.303Z,10.55
2018-06-12T03:45:11.520Z,12.83
2018-06-12T03:45:42.753Z,12.27
2018-06-12T03:46:13.973Z,10.60
2018-06-12T03:46:45.148Z,10.97
2018-06-12T03:47:16.321Z,10.85
2018-06-12T03:47:47.561Z,10.13
2018-06-12T03:48:18.740Z,10.37
2018-06-12T03:48:50.721Z,13.07
2018-06-12T03:49:21.889Z,9.60
2018-06-12T03:49:53.052Z,10.70
2018-06-12T03:50:24.240Z,10.27
2018-06-12T03:50:55.408Z,10.03
2018-06-12T03:51:26.593Z,10.27
2018-06-12T03:51:57.826Z,10.67
2018-06-12T03:52:29.003Z,9.33
2018-06-12T03:53:00.237Z,10.03
2018-06-12T03:53:31.418Z,9.67
2018-06-12T03:54:02.679Z,9.50
2018-06-12T03:54:33.914Z,12.67
2018-06-12T03:55:05.093Z,10.60
2018-06-12T03:55:36.260Z,9.53
2018-06-12T03:56:07.485Z,9.37
2018-06-12T03:56:38.652Z,10.57
2018-06-12T03:57:09.868Z,9.17
2018-06-12T03:57:41.044Z,12.53
2018-06-12T03:58:12.340Z,10.97
2018-06-12T03:58:43.520Z,10.20
2018-06-12T03:59:14.687Z,9.87
2018-06-12T03:59:45.919Z,10.17
2018-06-12T04:00:17.104Z,9.27
2018-06-12T04:00:48.277Z,9.17
2018-06-12T04:01:19.497Z,9.37
2018-06-12T04:01:50.729Z,8.45
2018-06-12T04:02:21.908Z,8.80
2018-06-12T04:02:53.079Z,8.30
2018-06-12T04:03:24.272Z,11.23
2018-06-12T04:03:55.510Z,9.10
2018-06-12T04:04:26.704Z,8.83
2018-06-12T04:04:57.881Z,8.70
2018-06-12T04:05:29.115Z,8.90
2018-06-12T04:06:00.375Z,10.40
2018-06-12T04:06:31.632Z,8.30
2018-06-12T04:07:02.802Z,10.10
2018-06-12T04:07:33.994Z,12.10
2018-06-12T04:08:05.161Z,9.80
2018-06-12T04:08:36.338Z,8.90
2018-06-12T04:09:07.500Z,9.63
2018-06-12T04:09:38.683Z,8.60
2018-06-12T04:10:09.849Z,12.33
2018-06-12T04:10:41.036Z,10.37
2018-06-12T04:11:12.225Z,12.30
2018-06-12T04:11:43.477Z,8.93
2018-06-12T04:12:14.750Z,10.20
2018-06-12T04:12:46.002Z,12.10
2018-06-12T04:13:17.201Z,9.10
2018-06-12T04:13:48.368Z,8.57
2018-06-12T04:14:19.580Z,9.23
2018-06-12T04:14:50.800Z,8.90
2018-06-12T04:15:21.956Z,8.53
2018-06-12T04:15:53.200Z,9.00
2018-06-12T04:16:24.367Z,8.43
2018-06-12T04:16:55.576Z,8.17
2018-06-12T04:17:26.907Z,8.40
2018-06-12T04:17:58.146Z,10.20
2018-06-12T04:18:29.396Z,8.63
2018-06-12T04:19:00.562Z,11.47
2018-06-12T04:19:31.741Z,8.93
2018-06-12T04:20:02.918Z,10.53
2018-06-12T04:20:34.171Z,7.97
2018-06-12T04:21:05.389Z,10.23
2018-06-12T04:21:36.619Z,8.93
2018-06-12T04:22:07.890Z,8.00
2018-06-12T04:22:39.072Z,7.50
2018-06-12T04:23:10.236Z,7.00
2018-06-12T04:23:41.408Z,7.93
2018-06-12T04:24:12.629Z,11.77
2018-06-12T04:24:43.809Z,9.40
2018-06-12T04:25:14.978Z,8.53
2018-06-12T04:25:46.201Z,9.27
2018-06-12T04:26:17.382Z,8.30
2018-06-12T04:26:48.561Z,10.67
2018-06-12T04:27:19.788Z,10.00
2018-06-12T04:27:50.963Z,8.00
2018-06-12T04:28:22.185Z,7.13
2018-06-12T04:28:53.417Z,10.10
2018-06-12T04:29:24.641Z,11.47
2018-06-12T04:29:55.816Z,8.00
2018-06-12T04:30:26.997Z,7.53
2018-06-12T04:30:58.174Z,7.63
2018-06-12T04:31:29.358Z,7.67
2018-06-12T04:32:00.524Z,9.33
2018-06-12T04:32:31.705Z,8.53
2018-06-12T04:33:02.912Z,9.37
2018-06-12T04:33:34.128Z,8.03
2018-06-12T04:34:05.352Z,8.53
2018-06-12T04:34:36.554Z,10.13
2018-06-12T04:35:07.769Z,9.30
2018-06-12T04:35:39.655Z,10.20
2018-06-12T04:36:10.889Z,8.10
2018-06-12T04:36:42.058Z,9.43
2018-06-12T04:37:13.264Z,7.37
2018-06-12T04:37:44.510Z,8.60
2018-06-12T04:38:15.733Z,7.77
2018-06-12T04:38:46.937Z,9.10
2018-06-12T04:39:18.096Z,8.00
2018-06-12T04:39:49.325Z,8.67
2018-06-12T04:40:20.507Z,9.93
2018-06-12T04:40:51.737Z,9.67
2018-06-12T04:41:23.006Z,7.70
2018-06-12T04:41:54.194Z,8.13
2018-06-12T04:42:25.413Z,8.70
2018-06-12T04:42:56.584Z,8.73
2018-06-12T04:43:27.826Z,7.40
2018-06-12T04:43:59.073Z,8.07
2018-06-12T04:44:30.305Z,10.50
2018-06-12T04:45:01.555Z,6.87
2018-06-12T04:45:32.769Z,8.20
2018-06-12T04:46:03.947Z,10.83
2018-06-12T04:46:35.113Z,9.13
2018-06-12T04:47:06.337Z,7.60
2018-06-12T04:47:37.581Z,10.97
2018-06-12T04:48:08.762Z,7.73
2018-06-12T04:48:39.956Z,10.00
2018-06-12T04:49:11.232Z,8.33
2018-06-12T04:49:42.460Z,9.30
2018-06-12T04:50:13.689Z,9.53
2018-06-12T04:50:44.859Z,7.50
2018-06-12T04:51:16.077Z,7.60
2018-06-12T04:51:47.253Z,7.80
2018-06-12T04:52:18.485Z,7.83
2018-06-12T04:52:49.687Z,8.10
2018-06-12T04:53:20.889Z,8.40
2018-06-12T04:53:52.075Z,9.20
2018-06-12T04:54:23.296Z,8.63
2018-06-12T04:54:54.485Z,8.07
2018-06-12T04:55:25.728Z,7.90
2018-06-12T04:55:56.909Z,8.80
2018-06-12T04:56:28.205Z,9.30
2018-06-12T04:56:59.433Z,9.00
2018-06-12T04:57:30.653Z,8.27
2018-06-12T04:58:01.886Z,8.90
2018-06-12T04:58:33.066Z,8.70
2018-06-12T04:59:04.284Z,8.83
2018-06-12T04:59:35.502Z,8.03
2018-06-12T05:00:06.722Z,10.70
2018-06-12T05:00:37.905Z,7.50
2018-06-12T05:01:09.132Z,9.87
2018-06-12T05:01:40.317Z,10.10
2018-06-12T05:02:11.488Z,10.17
2018-06-12T05:02:42.705Z,9.13
2018-06-12T05:03:13.920Z,10.33
2018-06-12T05:03:45.149Z,7.80
2018-06-12T05:04:16.337Z,10.63
2018-06-12T05:04:47.569Z,8.80
2018-06-12T05:05:18.751Z,10.00
2018-06-12T05:05:49.925Z,9.23
2018-06-12T05:06:21.146Z,8.23
2018-06-12T05:06:52.387Z,11.77
2018-06-12T05:07:23.622Z,8.33
2018-06-12T05:07:54.817Z,12.47
2018-06-12T05:08:26.029Z,10.27
2018-06-12T05:08:57.208Z,8.27
2018-06-12T05:09:29.294Z,11.60
2018-06-12T05:10:00.520Z,9.63
2018-06-12T05:10:31.800Z,10.40
2018-06-12T05:11:03.018Z,11.87
2018-06-12T05:11:34.204Z,11.50
2018-06-12T05:12:05.379Z,8.57
2018-06-12T05:12:36.556Z,9.53
2018-06-12T05:13:07.736Z,7.80
2018-06-12T05:13:38.912Z,11.47
2018-06-12T05:14:10.143Z,11.37
2018-06-12T05:14:41.324Z,9.57
2018-06-12T05:15:12.507Z,7.97
2018-06-12T05:15:43.743Z,9.37
2018-06-12T05:16:14.937Z,7.90
2018-06-12T05:16:46.830Z,10.73
2018-06-12T05:17:18.069Z,13.60
2018-06-12T05:17:49.257Z,8.47
2018-06-12T05:18:20.492Z,9.37
2018-06-12T05:18:51.739Z,12.90
2018-06-12T05:19:22.961Z,9.97
2018-06-12T05:19:54.178Z,9.27
2018-06-12T05:20:25.396Z,8.70
2018-06-12T05:20:56.631Z,8.47
2018-06-12T05:21:28.003Z,7.90
2018-06-12T05:21:59.277Z,10.77
2018-06-12T05:22:30.484Z,8.63
2018-06-12T05:23:01.664Z,8.13
2018-06-12T05:23:32.853Z,9.67
2018-06-12T05:24:04.032Z,7.63
2018-06-12T05:24:35.218Z,12.27
2018-06-12T05:25:06.453Z,10.67
2018-06-12T05:25:37.674Z,11.80
2018-06-12T05:26:08.901Z,11.77
2018-06-12T05:26:40.240Z,12.40
2018-06-12T05:27:11.502Z,9.73
2018-06-12T05:27:42.736Z,8.07
2018-06-12T05:28:13.930Z,10.27
2018-06-12T05:28:45.107Z,8.23
2018-06-12T05:29:16.299Z,9.87
2018-06-12T05:29:47.494Z,10.87
2018-06-12T05:30:18.672Z,10.33
2018-06-12T05:30:49.853Z,11.33
2018-06-12T05:31:21.021Z,9.00
2018-06-12T05:31:52.230Z,9.30
2018-06-12T05:32:23.525Z,10.73
2018-06-12T05:32:54.710Z,8.70
2018-06-12T05:33:25.931Z,8.20
2018-06-12T05:33:57.176Z,10.50
2018-06-12T05:34:28.372Z,9.83
2018-06-12T05:34:59.543Z,9.10
2018-06-12T05:35:30.720Z,9.37
2018-06-12T05:36:01.899Z,10.10
2018-06-12T05:36:33.141Z,9.67
2018-06-12T05:37:04.320Z,9.97
2018-06-12T05:37:35.575Z,9.00
2018-06-12T05:38:06.778Z,9.93
2018-06-12T05:38:37.943Z,9.67
2018-06-12T05:39:09.112Z,10.00
2018-06-12T05:39:40.281Z,11.00
2018-06-12T05:40:11.448Z,10.13
2018-06-12T05:40:42.674Z,8.67
2018-06-12T05:41:13.909Z,7.90
2018-06-12T05:41:45.098Z,9.07
2018-06-12T05:42:16.322Z,11.53
2018-06-12T05:42:47.545Z,11.10
2018-06-12T05:43:19.359Z,10.23
2018-06-12T05:43:50.579Z,9.70
2018-06-12T05:44:21.932Z,8.57
2018-06-12T05:44:53.171Z,13.53
2018-06-12T05:45:24.478Z,9.07
2018-06-12T05:45:55.748Z,11.33
2018-06-12T05:46:26.916Z,12.13
2018-06-12T05:46:58.097Z,7.93
2018-06-12T05:47:29.271Z,9.83
2018-06-12T05:48:00.499Z,10.17
2018-06-12T05:48:31.751Z,11.40
2018-06-12T05:49:02.924Z,11.03
2018-06-12T05:49:34.200Z,9.83
2018-06-12T05:50:05.464Z,8.97
2018-06-12T05:50:36.732Z,10.87
2018-06-12T05:51:07.917Z,8.70
2018-06-12T05:51:39.110Z,11.93
2018-06-12T05:52:10.375Z,9.10
2018-06-12T05:52:41.625Z,8.53
2018-06-12T05:53:12.860Z,11.50
2018-06-12T05:53:44.174Z,10.00
2018-06-12T05:54:15.421Z,12.53
2018-06-12T05:54:46.612Z,9.50
2018-06-12T05:55:17.797Z,10.97
2018-06-12T05:55:48.991Z,11.20
2018-06-12T05:56:20.180Z,9.40
2018-06-12T05:56:51.367Z,9.23
2018-06-12T05:57:22.538Z,9.57
2018-06-12T05:57:53.808Z,8.47
2018-06-12T05:58:25.021Z,9.23
2018-06-12T05:58:56.250Z,9.33
2018-06-12T05:59:27.485Z,10.00
2018-06-12T05:59:58.675Z,11.37
2018-06-12T06:00:29.844Z,9.37
2018-06-12T06:01:01.069Z,8.50
2018-06-12T06:01:32.255Z,12.50
2018-06-12T06:02:03.469Z,8.53
2018-06-12T06:02:34.645Z,9.50
2018-06-12T06:03:05.821Z,13.93
2018-06-12T06:03:37.067Z,8.37
2018-06-12T06:04:08.313Z,12.07
2018-06-12T06:04:39.500Z,10.17
2018-06-12T06:05:10.682Z,10.60
2018-06-12T06:05:41.974Z,7.93
2018-06-12T06:06:13.180Z,10.63
2018-06-12T06:06:44.352Z,8.80
2018-06-12T06:07:15.532Z,12.80
2018-06-12T06:07:46.702Z,9.17
2018-06-12T06:08:17.889Z,9.63
2018-06-12T06:08:49.080Z,9.37
2018-06-12T06:09:20.269Z,9.20
2018-06-12T06:09:51.599Z,8.03
2018-06-12T06:10:22.776Z,8.17
2018-06-12T06:10:53.992Z,8.63
2018-06-12T06:11:25.284Z,9.47
2018-06-12T06:11:56.453Z,8.17
2018-06-12T06:12:27.680Z,7.93
2018-06-12T06:12:58.921Z,10.53
2018-06-12T06:13:30.115Z,11.20
2018-06-12T06:14:01.361Z,7.73
2018-06-12T06:14:32.544Z,14.33
2018-06-12T06:15:03.724Z,8.50
2018-06-12T06:15:34.959Z,9.43
2018-06-12T06:16:06.138Z,10.67
2018-06-12T06:16:37.413Z,10.97
2018-06-12T06:17:08.668Z,9.53
2018-06-12T06:17:39.834Z,8.60
2018-06-12T06:18:11.020Z,9.40
2018-06-12T06:18:42.268Z,9.73
2018-06-12T06:19:13.505Z,10.07
2018-06-12T06:19:44.774Z,7.90
2018-06-12T06:20:15.959Z,8.80
2018-06-12T06:20:47.282Z,9.07
2018-06-12T06:21:18.510Z,10.40
2018-06-12T06:21:49.690Z,9.90
2018-06-12T06:22:21.003Z,9.57
2018-06-12T06:22:52.249Z,9.80
2018-06-12T06:23:23.438Z,7.53
2018-06-12T06:23:54.685Z,8.63
2018-06-12T06:24:25.878Z,7.60
2018-06-12T06:24:57.060Z,10.30
2018-06-12T06:25:28.244Z,9.50
2018-06-12T06:25:59.434Z,7.80
2018-06-12T06:26:30.674Z,8.40
2018-06-12T06:27:01.877Z,6.93
2018-06-12T06:27:33.108Z,9.77
2018-06-12T06:28:04.293Z,8.03
2018-06-12T06:28:35.464Z,8.37
2018-06-12T06:29:06.701Z,9.03
2018-06-12T06:29:37.904Z,9.83
2018-06-12T06:30:09.113Z,7.23
2018-06-12T06:30:40.371Z,7.53
2018-06-12T06:31:11.604Z,15.03
2018-06-12T06:31:42.826Z,10.17
2018-06-12T06:32:14.002Z,6.77
2018-06-12T06:32:45.217Z,7.67
2018-06-12T06:33:16.445Z,8.13
2018-06-12T06:33:47.635Z,8.63
2018-06-12T06:34:18.817Z,7.40
2018-06-12T06:34:50.040Z,7.87
2018-06-12T06:35:21.228Z,8.83
2018-06-12T06:35:52.489Z,11.80
2018-06-12T06:36:23.755Z,8.60
2018-06-12T06:36:54.913Z,7.77
2018-06-12T06:37:26.144Z,8.63
2018-06-12T06:37:57.333Z,8.10
2018-06-12T06:38:28.521Z,6.73
2018-06-12T06:38:59.736Z,7.33
2018-06-12T06:39:30.950Z,8.50
2018-06-12T06:40:02.135Z,8.37
2018-06-12T06:40:33.311Z,6.77
2018-06-12T06:41:04.561Z,7.13
2018-06-12T06:41:35.750Z,8.73
2018-06-12T06:42:06.931Z,7.77
2018-06-12T06:42:38.180Z,7.60
2018-06-12T06:43:09.402Z,8.47
2018-06-12T06:43:40.675Z,10.27
2018-06-12T06:44:11.945Z,10.90
2018-06-12T06:44:43.133Z,8.17
2018-06-12T06:45:14.400Z,10.20
2018-06-12T06:45:45.619Z,10.60
2018-06-12T06:46:16.837Z,7.90
2018-06-12T06:46:48.090Z,9.00
2018-06-12T06:47:20.157Z,9.00